Portada
METAR-TAF:

METAR-TAF

Aeropuertos :

Gulkana, Alaska, Estados Unidos

latitud: 62-09N, longitud: 145-27W, altitud: 481 m

Observación

El informe se hizo hace 1 hora y 15 minutos, a las 15:53 UTC
Viento 13 kt del sur-sureste
Temperatura 5°C
Humedad 81%
Presión 1026 hPa
Visibilidad: 16.1 km
Cielo despejado

METAR: PAGK 061553Z AUTO 16013KT 10SM CLR 05/02 A3029 RMK AO2 SLP277 T00500022 TSNO

Hora: 09:08 (17:08 UTC)

Pronóstico

El informe se hizo hace 5 horas y 29 minutos, a las 11:39 UTC
Pronóstico válido del 06 a las 12 UTC al 07 a las 12 UTC
Viento 18 kt del sur-sureste con ráfagas de 28 kt
Visibilidad: 10 km
Nubes dispersas a una altura de 10000 ft
Nubes dispersas a una altura de 20000 ft

TAF: PAGK 061139Z 0612/0712 16018G28KT P6SM SCT100 SCT200

Observaciones y pronósticos meteorológicos de más de 4000 aeropuertos (mensajes METAR y TAF).

Los puntos amarillos y rojos representan las estaciones disponibles.

Ponga el ratón en el punto deseado para ver el nombre de la estación.

Haga clic para ver las observaciones y los pronósticos meteorológicos.

Para cambiar el mapa : haga clic en los botones verdes con una cruz de color negro para hacer un zoom, en el botón verde con un guión para alejar o en las flechas verdes para mapas adyacentes.


METAR-TAF: